createdAt,value
2023-02-19T00:01:42.690Z,6.32
2023-02-19T00:12:04.154Z,6.31
2023-02-19T00:22:25.148Z,6.29
2023-02-19T00:32:51.561Z,6.28
2023-02-19T00:43:12.563Z,6.27
2023-02-19T00:53:33.849Z,6.26
2023-02-19T01:03:55.364Z,6.25
2023-02-19T01:14:16.608Z,6.25
2023-02-19T01:24:37.998Z,6.25
2023-02-19T01:34:59.233Z,6.22
2023-02-19T01:45:25.965Z,6.22
2023-02-19T01:55:50.750Z,6.21
2023-02-19T02:06:34.718Z,6.21
2023-02-19T02:17:08.457Z,6.20
2023-02-19T02:27:44.410Z,6.18
2023-02-19T02:38:08.610Z,6.17
2023-02-19T02:48:34.910Z,6.17
2023-02-19T02:58:58.499Z,6.17
2023-02-19T03:09:30.423Z,6.17
2023-02-19T03:19:55.155Z,6.17
2023-02-19T03:30:24.643Z,6.17
2023-02-19T03:41:03.992Z,6.16
2023-02-19T03:51:50.887Z,6.16
2023-02-19T04:02:18.836Z,6.15
2023-02-19T04:12:43.989Z,6.14
2023-02-19T04:23:05.334Z,6.15
2023-02-19T04:33:26.257Z,6.14
2023-02-19T04:43:47.731Z,6.14
2023-02-19T04:54:09.109Z,6.14
2023-02-19T05:04:30.358Z,6.14
2023-02-19T05:14:51.822Z,6.15
2023-02-19T05:25:13.245Z,6.15
2023-02-19T05:35:34.622Z,6.15
2023-02-19T05:45:59.025Z,6.15
2023-02-19T05:56:26.305Z,6.14
2023-02-19T06:06:48.239Z,6.14
2023-02-19T06:17:09.637Z,6.14
2023-02-19T06:27:30.653Z,6.14
2023-02-19T06:37:51.992Z,6.13
2023-02-19T06:48:13.586Z,6.12
2023-02-19T06:58:35.122Z,6.12
2023-02-19T07:08:57.837Z,6.12
2023-02-19T07:19:19.101Z,6.15
2023-02-19T07:29:40.097Z,6.19
2023-02-19T07:40:01.751Z,6.24
2023-02-19T07:50:23.031Z,6.26
2023-02-19T08:00:44.468Z,6.29
2023-02-19T08:11:24.430Z,6.30
2023-02-19T08:21:46.094Z,6.31
2023-02-19T08:32:07.434Z,6.33
2023-02-19T08:42:29.494Z,6.37
2023-02-19T08:52:50.776Z,6.40
2023-02-19T09:03:12.003Z,6.42
2023-02-19T09:13:33.479Z,6.42
2023-02-19T09:23:54.635Z,6.44
2023-02-19T09:34:15.899Z,6.45
2023-02-19T09:44:40.208Z,6.47
2023-02-19T09:55:04.538Z,6.46
2023-02-19T10:05:26.694Z,6.46
2023-02-19T10:15:53.435Z,6.45
2023-02-19T10:26:15.700Z,6.46
2023-02-19T10:36:39.944Z,6.45
2023-02-19T10:47:02.300Z,6.48
2023-02-19T10:57:30.600Z,6.52
2023-02-19T11:07:56.295Z,6.56
2023-02-19T11:18:25.326Z,6.59
2023-02-19T11:29:13.235Z,6.61
2023-02-19T11:39:34.861Z,6.61
2023-02-19T11:50:19.920Z,6.63
2023-02-19T12:01:06.997Z,6.66
2023-02-19T12:11:46.532Z,6.70
2023-02-19T12:22:31.754Z,6.74
2023-02-19T12:32:59.008Z,6.77
2023-02-19T12:43:22.156Z,6.85
2023-02-19T12:53:54.665Z,6.85
2023-02-19T13:04:54.614Z,6.78
2023-02-19T13:15:41.746Z,6.68
2023-02-19T13:26:49.323Z,6.62
2023-02-19T13:37:11.781Z,6.62
2023-02-19T13:47:55.131Z,6.66
2023-02-19T13:58:34.303Z,6.64
2023-02-19T14:08:57.649Z,6.66
2023-02-19T14:19:41.948Z,6.66
2023-02-19T14:30:05.317Z,6.61
2023-02-19T14:40:46.538Z,6.58
2023-02-19T14:51:16.727Z,6.54
2023-02-19T15:01:38.642Z,6.48
2023-02-19T15:12:00.585Z,6.42
2023-02-19T15:22:24.655Z,6.36
2023-02-19T15:32:52.850Z,6.34
2023-02-19T15:43:44.723Z,6.30
2023-02-19T15:55:02.085Z,6.27
2023-02-19T16:05:27.959Z,6.24
2023-02-19T16:15:58.319Z,6.22
2023-02-19T16:26:19.661Z,6.19
2023-02-19T16:36:45.660Z,6.17
2023-02-19T16:47:26.850Z,6.14
2023-02-19T16:57:48.097Z,6.11
2023-02-19T17:08:34.409Z,6.07
2023-02-19T17:18:56.178Z,6.05
2023-02-19T17:29:20.130Z,6.02
2023-02-19T17:39:41.307Z,6.00
2023-02-19T17:50:02.351Z,5.96
2023-02-19T18:00:26.842Z,5.93
2023-02-19T18:10:48.177Z,5.92
2023-02-19T18:21:10.624Z,5.92
2023-02-19T18:31:33.207Z,5.91
2023-02-19T18:41:54.531Z,5.80
2023-02-19T18:52:20.388Z,5.74
2023-02-19T19:02:49.129Z,5.61
2023-02-19T19:13:11.598Z,5.51
2023-02-19T19:23:32.774Z,5.45
2023-02-19T19:33:54.170Z,5.41
2023-02-19T19:44:15.157Z,5.39
2023-02-19T19:54:37.709Z,5.33
2023-02-19T20:04:58.940Z,5.28
2023-02-19T20:15:24.146Z,5.22
2023-02-19T20:25:45.492Z,5.19
2023-02-19T20:36:07.770Z,5.14
2023-02-19T20:46:29.971Z,5.08
2023-02-19T20:56:56.271Z,4.97
2023-02-19T21:07:17.571Z,4.94
2023-02-19T21:17:38.845Z,4.90
2023-02-19T21:28:00.058Z,4.84
2023-02-19T21:38:21.533Z,4.82
2023-02-19T21:48:42.656Z,4.83
2023-02-19T21:59:04.084Z,4.81
2023-02-19T22:09:25.288Z,4.75
2023-02-19T22:19:47.443Z,4.73
2023-02-19T22:30:09.588Z,4.70
2023-02-19T22:40:30.637Z,4.72
2023-02-19T22:50:52.932Z,4.69
2023-02-19T23:01:15.071Z,4.69
2023-02-19T23:11:39.404Z,4.66
2023-02-19T23:22:01.181Z,4.67
2023-02-19T23:32:24.131Z,4.67
2023-02-19T23:42:45.413Z,4.67
2023-02-19T23:53:06.534Z,4.66
